Time;durP1;ratioP1;P1;durP2;ratioP2;P2;SDS_P1;SDS_P2;PMS_P1;PMS_P2;Temp;Humidity;BMP_temperature;BMP_pressure;BME280_temperature;BME280_humidity;BME280_pressure;Samples;Min_cycle;Max_cycle;Signal;HPM_P1;HPM_P2
2021/07/16 00:00:39;;;;;;;7.68;4.00;;;;;;;19.71;75.32;99301.31;5074311;28;20491;-69
2021/07/16 00:03:10;;;;;;;6.30;3.67;;;;;;;19.53;75.42;99304.69;5074454;28;20048;-67
2021/07/16 00:05:40;;;;;;;5.90;3.78;;;;;;;19.34;75.56;99308.94;5074365;28;20094;-68
2021/07/16 00:08:09;;;;;;;5.18;3.90;;;;;;;19.34;75.86;99309.78;5074389;28;20053;-67
2021/07/16 00:10:38;;;;;;;6.57;3.47;;;;;;;19.36;75.89;99309.78;5074329;28;20048;-69
2021/07/16 00:13:08;;;;;;;7.50;4.50;;;;;;;19.15;75.97;99310.63;5074332;28;20426;-69
2021/07/16 00:15:37;;;;;;;6.03;4.05;;;;;;;19.16;76.36;99313.16;5074288;28;20033;-67
2021/07/16 00:18:07;;;;;;;6.85;3.83;;;;;;;19.21;76.45;99320.72;5074156;28;20036;-69
2021/07/16 00:20:37;;;;;;;5.57;3.65;;;;;;;19.26;76.40;99321.38;5074399;28;20032;-69
2021/07/16 00:23:06;;;;;;;7.47;4.18;;;;;;;19.33;76.20;99327.97;5074083;28;20086;-69
2021/07/16 00:25:36;;;;;;;6.35;4.32;;;;;;;19.33;75.82;99339.19;5056188;28;20044;-67
2021/07/16 00:28:05;;;;;;;7.55;3.67;;;;;;;19.30;75.63;99335.88;5073956;28;20036;-69
2021/07/16 00:30:34;;;;;;;;;;;;;;;19.32;75.48;99337.50;5074328;28;20041;-69
2021/07/16 00:33:04;;;;;;;7.05;3.53;;;;;;;19.32;75.26;99341.81;5073703;28;19981;-67
2021/07/16 00:35:33;;;;;;;8.57;3.95;;;;;;;19.22;75.36;99343.09;5074129;28;20102;-67
2021/07/16 00:38:04;;;;;;;7.55;4.10;;;;;;;19.09;75.44;99347.09;5073759;28;20047;-67
2021/07/16 00:40:33;;;;;;;5.55;3.70;;;;;;;18.97;75.83;99345.00;5073865;28;20427;-67
2021/07/16 00:43:03;;;;;;;7.38;4.15;;;;;;;18.90;76.33;99340.97;5073853;28;20047;-69
2021/07/16 00:45:32;;;;;;;5.88;3.65;;;;;;;19.00;76.38;99335.41;5073808;28;20101;-67
2021/07/16 00:48:02;;;;;;;6.32;4.05;;;;;;;18.93;76.34;99333.13;5073725;28;20048;-67
2021/07/16 00:50:33;;;;;;;6.95;3.75;;;;;;;18.79;76.53;99343.16;5073662;28;20044;-68
2021/07/16 00:53:06;;;;;;;6.40;3.88;;;;;;;18.72;77.11;99338.22;5073760;28;20127;-67
2021/07/16 00:55:35;;;;;;;8.25;4.22;;;;;;;18.89;77.15;99331.53;5074084;28;20037;-70
2021/07/16 00:58:05;;;;;;;7.65;3.95;;;;;;;19.01;76.70;99320.69;5073840;28;20040;-69
2021/07/16 01:00:34;;;;;;;9.15;4.28;;;;;;;19.13;76.39;99323.63;5073633;28;20071;-67
2021/07/16 01:03:04;;;;;;;5.80;3.50;;;;;;;19.14;75.86;99317.56;5073562;28;20395;-67
2021/07/16 01:05:35;;;;;;;6.32;3.80;;;;;;;19.10;75.46;99320.34;5073559;28;20128;-69
2021/07/16 01:08:06;;;;;;;6.32;4.07;;;;;;;19.00;75.38;99313.84;5073512;28;20067;-67
2021/07/16 01:10:35;;;;;;;4.47;3.15;;;;;;;19.02;75.23;99309.47;5073388;28;20047;-69
2021/07/16 01:13:07;;;;;;;6.07;3.67;;;;;;;18.97;75.09;99325.16;5072739;28;20040;-69
2021/07/16 01:15:37;;;;;;;6.35;3.78;;;;;;;18.90;75.06;99328.06;5055728;28;20068;-69
2021/07/16 01:18:06;;;;;;;6.28;3.17;;;;;;;18.69;75.43;99320.22;5073356;28;20044;-67
2021/07/16 01:20:35;;;;;;;10.60;3.72;;;;;;;18.49;75.81;99311.59;5073399;28;20132;-69
2021/07/16 01:23:15;;;;;;;8.45;3.80;;;;;;;18.33;76.58;99316.44;5073400;28;20559;-69
2021/07/16 01:25:44;;;;;;;7.78;3.70;;;;;;;18.23;77.11;99320.31;5073366;28;20110;-67
2021/07/16 01:28:14;;;;;;;7.63;3.03;;;;;;;18.26;77.38;99320.16;5073337;28;20048;-67
2021/07/16 01:30:43;;;;;;;6.03;3.42;;;;;;;18.40;77.50;99317.94;5073624;28;20083;-69
2021/07/16 01:33:13;;;;;;;6.55;3.58;;;;;;;18.46;77.21;99319.44;5073137;28;20564;-68
2021/07/16 01:35:42;;;;;;;9.18;4.05;;;;;;;18.46;77.41;99314.28;5073206;28;20037;-66
2021/07/16 01:38:13;;;;;;;7.53;4.13;;;;;;;18.60;77.40;99309.41;5073138;28;20051;-68
2021/07/16 01:40:43;;;;;;;4.65;3.38;;;;;;;18.67;76.78;99306.53;5073245;28;20048;-67
2021/07/16 01:43:12;;;;;;;5.80;4.00;;;;;;;18.63;76.85;99307.56;5073150;28;20059;-67
2021/07/16 01:45:43;;;;;;;5.90;3.45;;;;;;;18.66;76.83;99304.03;5073805;28;20059;-69
2021/07/16 01:48:14;;;;;;;6.88;4.05;;;;;;;18.64;76.76;99301.47;5073172;28;20045;-66
2021/07/16 01:50:46;;;;;;;6.50;4.28;;;;;;;18.73;76.64;99295.13;5073150;28;20048;-69
2021/07/16 01:53:19;;;;;;;8.63;4.40;;;;;;;18.75;76.40;99293.31;5073050;28;20122;-69
2021/07/16 01:55:49;;;;;;;8.07;4.40;;;;;;;18.83;76.31;99300.75;5073710;28;20040;-69
2021/07/16 01:58:18;;;;;;;7.25;3.97;;;;;;;18.83;76.10;99296.44;5073019;28;20044;-69
2021/07/16 02:00:48;;;;;;;5.80;4.22;;;;;;;18.76;75.81;99299.31;5073031;28;20055;-69
2021/07/16 02:03:20;;;;;;;7.13;3.90;;;;;;;18.54;76.17;99300.19;5073293;28;20543;-68
2021/07/16 02:05:50;;;;;;;6.85;3.92;;;;;;;18.53;76.52;99298.47;5073007;28;20140;-69
2021/07/16 02:08:22;;;;;;;7.60;4.63;;;;;;;18.47;76.75;99298.72;5072924;28;20041;-66
2021/07/16 02:10:54;;;;;;;7.50;4.40;;;;;;;18.40;76.82;99293.81;5073311;28;20128;-66
2021/07/16 02:13:23;;;;;;;7.85;4.43;;;;;;;18.40;77.11;99294.66;5072912;28;20071;-66
2021/07/16 02:15:54;;;;;;;9.50;4.18;;;;;;;18.42;77.16;99297.19;5073763;28;20439;-68
2021/07/16 02:18:24;;;;;;;7.22;3.90;;;;;;;18.53;77.17;99300.22;5072789;28;20095;-69
2021/07/16 02:20:55;;;;;;;7.45;4.03;;;;;;;18.60;76.69;99299.91;5072823;28;20553;-67
2021/07/16 02:23:28;;;;;;;7.72;3.78;;;;;;;18.44;76.59;99300.53;5056417;28;20048;-66
2021/07/16 02:25:58;;;;;;;9.25;3.42;;;;;;;18.46;76.92;99299.63;5076414;28;20052;-66
2021/07/16 02:28:29;;;;;;;5.40;3.65;;;;;;;18.43;76.78;99304.88;5076325;28;20051;-67
2021/07/16 02:30:59;;;;;;;6.00;3.60;;;;;;;18.20;76.74;99299.75;5076949;28;20037;-67
2021/07/16 02:33:29;;;;;;;7.13;4.05;;;;;;;18.09;77.22;99294.97;5075072;28;20055;-69
2021/07/16 02:35:59;;;;;;;6.15;4.00;;;;;;;17.84;77.51;99290.78;5075083;28;20064;-69
2021/07/16 02:38:30;;;;;;;7.90;4.85;;;;;;;17.98;78.34;99291.09;5075031;28;20064;-67
2021/07/16 02:40:59;;;;;;;6.10;3.92;;;;;;;18.20;78.04;99284.25;5075023;28;20055;-66
2021/07/16 02:43:29;;;;;;;9.73;4.13;;;;;;;18.17;77.85;99289.50;5075013;28;20040;-69
2021/07/16 02:45:58;;;;;;;9.50;4.32;;;;;;;18.26;77.83;99280.59;5074911;28;20040;-66
2021/07/16 02:48:27;;;;;;;12.05;4.03;;;;;;;18.35;77.60;99278.50;5075046;28;20083;-68
2021/07/16 02:50:56;;;;;;;6.95;4.25;;;;;;;18.41;77.31;99287.72;5074812;28;20052;-69
2021/07/16 02:53:27;;;;;;;8.65;4.00;;;;;;;18.35;77.08;99288.84;5074814;28;20052;-67
2021/07/16 02:55:57;;;;;;;6.85;4.13;;;;;;;18.26;77.28;99296.09;5074708;28;20037;-66
2021/07/16 02:58:26;;;;;;;7.35;4.00;;;;;;;18.18;76.94;99296.38;5074601;28;20068;-68
2021/07/16 03:00:55;;;;;;;10.50;3.88;;;;;;;18.02;77.22;99290.94;5056729;28;20483;-67
2021/07/16 03:03:26;;;;;;;8.32;4.30;;;;;;;17.95;77.81;99293.78;5056715;28;20098;-67
2021/07/16 03:05:55;;;;;;;9.68;4.57;;;;;;;18.07;77.94;99294.19;5074604;28;20513;-66
2021/07/16 03:08:24;;;;;;;11.35;4.97;;;;;;;18.12;77.65;99286.25;5075040;28;20119;-67
2021/07/16 03:10:54;;;;;;;9.38;4.70;;;;;;;18.12;77.71;99291.44;5074445;28;20486;-66
2021/07/16 03:13:28;;;;;;;8.85;4.75;;;;;;;18.17;77.76;99289.50;5075125;28;20048;-69
2021/07/16 03:15:57;;;;;;;8.55;4.82;;;;;;;18.14;77.35;99287.03;5074477;28;20123;-68
2021/07/16 03:18:26;;;;;;;9.35;4.90;;;;;;;18.14;77.58;99293.97;5056260;28;20043;-67
2021/07/16 03:20:56;;;;;;;8.90;5.07;;;;;;;18.14;77.54;99288.81;5074296;28;20506;-69
2021/07/16 03:23:25;;;;;;;8.88;4.85;;;;;;;18.17;77.39;99292.09;5074601;28;20057;-66
2021/07/16 03:25:54;;;;;;;8.52;4.93;;;;;;;18.12;77.27;99288.84;5074582;28;20047;-66
2021/07/16 03:28:24;;;;;;;8.45;4.78;;;;;;;18.18;77.42;99286.06;5074585;28;20497;-66
2021/07/16 03:30:55;;;;;;;7.32;4.60;;;;;;;18.21;77.19;99269.59;5074170;28;20066;-68
2021/07/16 03:33:26;;;;;;;9.63;5.17;;;;;;;18.22;77.39;99266.94;5029111;28;1306747;-69
2021/07/16 03:35:55;;;;;;;9.13;4.32;;;;;;;18.30;77.10;99259.75;5074099;28;20724;-67
2021/07/16 03:38:24;;;;;;;12.63;5.30;;;;;;;18.33;76.93;99263.94;5074869;28;20482;-69
2021/07/16 03:40:55;;;;;;;8.52;4.38;;;;;;;18.29;77.18;99260.63;5074892;28;20045;-68
2021/07/16 03:43:24;;;;;;;9.50;4.57;;;;;;;18.32;76.76;99265.69;5074890;28;20052;-69
2021/07/16 03:45:55;;;;;;;10.85;5.28;;;;;;;18.25;76.91;99266.81;5075098;28;20036;-68
2021/07/16 03:48:24;;;;;;;6.78;4.50;;;;;;;18.27;76.84;99266.75;5074748;28;20100;-67
2021/07/16 03:50:57;;;;;;;7.55;4.80;;;;;;;18.33;76.78;99264.78;5074609;28;20045;-67
2021/07/16 03:53:27;;;;;;;7.32;4.68;;;;;;;18.35;76.62;99268.16;5074781;28;20049;-67
2021/07/16 03:55:56;;;;;;;10.20;4.88;;;;;;;18.42;76.65;99267.03;5074620;28;20082;-67
2021/07/16 03:58:25;;;;;;;8.05;4.78;;;;;;;18.44;76.28;99272.97;5074530;28;20041;-66
2021/07/16 04:00:56;;;;;;;8.27;4.72;;;;;;;18.40;76.37;99266.25;5056626;28;20041;-68
2021/07/16 04:03:25;;;;;;;6.30;4.25;;;;;;;18.43;76.48;99281.59;5074808;28;20431;-66
2021/07/16 04:05:56;;;;;;;7.72;4.35;;;;;;;18.47;76.02;99288.41;5075281;28;20437;-66
2021/07/16 04:08:25;;;;;;;7.20;3.90;;;;;;;18.57;76.08;99292.28;5074360;28;20110;-69
2021/07/16 04:10:54;;;;;;;8.75;4.03;;;;;;;18.63;75.75;99297.22;5074266;28;20445;-69
2021/07/16 04:13:23;;;;;;;8.10;3.85;;;;;;;18.68;75.58;99292.72;5074291;28;20032;-67
2021/07/16 04:15:52;;;;;;;8.85;4.47;;;;;;;18.77;75.53;99294.06;5074224;28;20059;-69
2021/07/16 04:18:23;;;;;;;8.48;4.18;;;;;;;18.74;75.30;99296.78;5074197;28;20040;-66
2021/07/16 04:20:52;;;;;;;6.53;4.00;;;;;;;18.77;75.56;99303.56;5074065;28;20045;-69
2021/07/16 04:23:21;;;;;;;11.13;5.13;;;;;;;18.80;75.30;99298.28;5074129;28;20616;-69
2021/07/16 04:25:51;;;;;;;11.45;4.30;;;;;;;18.79;75.02;99299.22;5074441;28;20040;-66
2021/07/16 04:28:20;;;;;;;11.25;4.47;;;;;;;18.72;74.91;99304.59;5074313;28;20044;-66
2021/07/16 04:30:49;;;;;;;9.02;4.30;;;;;;;18.71;74.85;99315.03;5074214;28;20059;-67
2021/07/16 04:33:19;;;;;;;7.82;4.18;;;;;;;18.78;74.82;99316.47;5073721;28;20084;-69
2021/07/16 04:35:50;;;;;;;8.18;4.28;;;;;;;18.86;74.67;99321.34;5073964;28;20141;-69
2021/07/16 04:38:19;;;;;;;10.55;4.70;;;;;;;18.89;74.54;99326.34;5073903;28;20056;-67
2021/07/16 04:40:48;;;;;;;6.82;4.65;;;;;;;18.91;74.30;99325.41;5074093;28;20436;-68
2021/07/16 04:43:19;;;;;;;12.18;4.88;;;;;;;19.06;74.07;99324.78;5074204;28;20036;-70
2021/07/16 04:45:48;;;;;;;9.60;4.45;;;;;;;19.20;73.52;99319.03;5073970;28;20032;-67
2021/07/16 04:48:17;;;;;;;6.70;4.03;;;;;;;19.40;73.56;99324.25;5074076;28;20037;-67
2021/07/16 04:50:46;;;;;;;6.43;4.10;;;;;;;19.54;72.73;99321.94;5074061;28;20094;-66
2021/07/16 04:53:17;;;;;;;6.93;4.22;;;;;;;19.66;72.24;99318.81;5073616;28;20498;-66
2021/07/16 04:55:46;;;;;;;8.02;4.57;;;;;;;19.77;71.91;99319.16;5073693;28;20051;-66
2021/07/16 04:58:15;;;;;;;13.48;5.30;;;;;;;19.98;72.00;99328.63;5073609;28;20040;-68
2021/07/16 05:00:44;;;;;;;10.88;5.25;;;;;;;20.16;71.56;99333.84;5073579;28;20032;-68
2021/07/16 05:03:13;;;;;;;8.18;5.03;;;;;;;20.21;70.98;99334.50;5073580;28;20045;-66
2021/07/16 05:05:42;;;;;;;8.63;4.35;;;;;;;20.33;70.78;99333.97;5073901;28;20123;-69
2021/07/16 05:08:11;;;;;;;9.77;5.05;;;;;;;20.43;70.53;99335.22;5073849;28;20044;-68
2021/07/16 05:10:43;;;;;;;10.45;4.45;;;;;;;20.52;70.25;99339.97;5073432;28;20036;-67
2021/07/16 05:13:12;;;;;;;7.10;4.28;;;;;;;20.64;69.91;99335.06;5073391;28;20067;-68
2021/07/16 05:15:41;;;;;;;8.38;3.80;;;;;;;20.79;69.34;99343.03;5073466;28;20048;-66
2021/07/16 05:18:10;;;;;;;7.90;4.43;;;;;;;20.88;69.03;99340.00;5073681;28;20390;-66
2021/07/16 05:20:39;;;;;;;6.43;4.00;;;;;;;21.00;69.11;99340.25;5073299;28;20041;-69
2021/07/16 05:23:08;;;;;;;10.13;3.97;;;;;;;21.15;68.75;99338.69;5073374;28;20098;-66
2021/07/16 05:25:39;;;;;;;11.48;4.55;;;;;;;21.29;68.46;99334.50;5073409;28;20037;-66
2021/07/16 05:28:09;;;;;;;16.63;5.03;;;;;;;21.42;68.03;99337.34;5073403;28;20098;-68
2021/07/16 05:30:38;;;;;;;10.90;4.18;;;;;;;21.53;68.01;99336.78;5073614;28;20037;-66
2021/07/16 05:33:07;;;;;;;7.70;3.60;;;;;;;21.67;67.73;99337.75;5072983;28;20059;-66
2021/07/16 05:35:39;;;;;;;8.30;3.97;;;;;;;21.72;67.20;99340.13;5073669;28;20128;-67
2021/07/16 05:38:09;;;;;;;12.50;4.50;;;;;;;21.86;67.23;99337.69;5073211;28;20075;-66
2021/07/16 05:40:38;;;;;;;5.40;3.67;;;;;;;21.93;66.45;99336.47;5073754;28;20062;-69
2021/07/16 05:43:10;;;;;;;7.70;3.65;;;;;;;22.00;65.94;99333.44;5073475;28;20094;-67
2021/07/16 05:45:41;;;;;;;11.07;4.60;;;;;;;22.07;65.67;99336.56;5073579;28;20491;-66
2021/07/16 05:48:12;;;;;;;7.93;3.95;;;;;;;22.12;65.42;99339.78;5073310;28;20052;-69
2021/07/16 05:50:42;;;;;;;8.68;5.00;;;;;;;22.25;65.37;99332.97;5073142;28;20055;-68
2021/07/16 05:53:11;;;;;;;7.55;4.30;;;;;;;22.45;64.88;99344.91;5073176;28;20055;-68
2021/07/16 05:55:41;;;;;;;6.32;3.83;;;;;;;22.60;64.62;99344.91;5073097;28;20083;-67
2021/07/16 05:58:13;;;;;;;8.25;3.97;;;;;;;22.70;64.26;99339.25;5074375;28;20503;-68
2021/07/16 06:00:46;;;;;;;8.68;4.25;;;;;;;22.74;64.11;99340.75;5076746;28;20044;-69
2021/07/16 06:03:15;;;;;;;7.32;4.28;;;;;;;22.82;64.46;99348.97;5077034;28;20044;-68
2021/07/16 06:05:44;;;;;;;6.43;3.70;;;;;;;22.88;64.21;99335.59;5076947;28;20032;-68
2021/07/16 06:08:18;;;;;;;5.95;4.00;;;;;;;22.84;64.20;99339.31;5077011;28;20128;-68
2021/07/16 06:10:47;;;;;;;9.20;4.05;;;;;;;22.98;64.26;99345.41;5076827;28;20082;-67
2021/07/16 06:13:19;;;;;;;6.93;4.20;;;;;;;23.10;62.57;99343.88;5076582;28;20071;-68
2021/07/16 06:15:48;;;;;;;7.93;3.88;;;;;;;23.18;62.14;99341.66;5076550;28;20049;-67
2021/07/16 06:18:17;;;;;;;9.02;4.10;;;;;;;23.31;61.92;99347.84;5058747;28;20059;-67
2021/07/16 06:20:46;;;;;;;7.78;4.00;;;;;;;23.45;61.65;99341.84;5076374;28;20032;-67
2021/07/16 06:23:16;;;;;;;10.63;4.40;;;;;;;23.67;61.34;99345.72;5076645;28;20545;-69
2021/07/16 06:25:46;;;;;;;13.07;5.07;;;;;;;23.80;60.46;99341.44;5076373;28;20056;-69
2021/07/16 06:28:15;;;;;;;6.88;4.35;;;;;;;23.78;60.75;99337.25;5076308;28;20041;-69
2021/07/16 06:30:45;;;;;;;6.75;3.90;;;;;;;23.97;59.99;99343.88;5076321;28;20124;-68
2021/07/16 06:33:14;;;;;;;7.38;3.85;;;;;;;24.06;58.43;99347.72;5076132;28;20041;-67
2021/07/16 06:35:43;;;;;;;6.38;4.03;;;;;;;24.12;58.09;99349.97;5076558;28;20071;-68
2021/07/16 06:38:12;;;;;;;6.57;4.20;;;;;;;24.19;58.12;99353.03;5076744;28;20056;-68
2021/07/16 06:40:41;;;;;;;5.72;3.67;;;;;;;24.27;57.89;99362.06;5076315;28;20044;-68
2021/07/16 06:43:10;;;;;;;;;;;;;;;24.37;58.04;99357.13;5076428;28;20074;-69
2021/07/16 06:45:39;;;;;;;10.67;4.60;;;;;;;24.46;58.33;99352.16;5075999;28;20370;-67
2021/07/16 06:48:10;;;;;;;6.30;3.97;;;;;;;24.64;58.37;99360.63;5075941;28;20771;-68
2021/07/16 06:50:39;;;;;;;6.28;3.63;;;;;;;24.66;58.08;99353.53;5075895;28;20044;-69
2021/07/16 06:53:08;;;;;;;12.60;4.10;;;;;;;24.76;58.31;99357.22;5076214;28;20083;-67
2021/07/16 06:55:39;;;;;;;9.23;4.10;;;;;;;24.87;57.99;99359.16;5075674;28;20047;-68
2021/07/16 06:58:08;;;;;;;9.30;4.10;;;;;;;25.05;57.28;99364.03;5075508;28;20131;-67
2021/07/16 07:00:37;;;;;;;11.38;3.70;;;;;;;25.11;56.59;99363.66;5075399;28;20059;-68
2021/07/16 07:03:06;;;;;;;7.82;3.80;;;;;;;24.96;56.56;99359.41;5075527;28;20033;-68
2021/07/16 07:05:58;;;;;;;7.63;3.95;;;;;;;25.04;56.76;99358.91;5075617;28;20056;-68
2021/07/16 07:08:27;;;;;;;7.15;3.47;;;;;;;24.89;56.73;99352.91;5075604;28;20067;-68
2021/07/16 07:10:56;;;;;;;6.93;3.85;;;;;;;24.87;57.22;99346.97;5075577;28;20048;-67
2021/07/16 07:13:26;;;;;;;7.30;3.80;;;;;;;24.96;56.83;99346.34;5076184;28;20068;-68
2021/07/16 07:15:55;;;;;;;7.75;3.90;;;;;;;25.30;56.41;99345.84;5075432;28;20498;-68
2021/07/16 07:18:24;;;;;;;11.88;4.40;;;;;;;25.39;55.61;99346.16;5075487;28;20047;-68
2021/07/16 07:20:53;;;;;;;6.10;4.03;;;;;;;25.61;54.95;99343.81;5075250;28;20048;-68
2021/07/16 07:23:24;;;;;;;8.70;4.60;;;;;;;25.70;54.23;99348.41;5075274;28;20155;-68
2021/07/16 07:25:54;;;;;;;7.22;4.13;;;;;;;25.70;54.00;99343.16;5075243;28;20120;-68
2021/07/16 07:28:23;;;;;;;8.70;4.57;;;;;;;25.88;53.94;99340.16;5075040;28;20044;-68
2021/07/16 07:30:52;;;;;;;8.70;4.28;;;;;;;26.13;53.13;99347.16;5075068;28;20380;-68
2021/07/16 07:33:21;;;;;;;7.38;4.22;;;;;;;26.36;53.32;99349.03;5074773;28;20045;-67
2021/07/16 07:35:50;;;;;;;8.82;4.53;;;;;;;26.54;51.99;99349.47;5075009;28;20498;-67
2021/07/16 07:38:20;;;;;;;7.57;4.55;;;;;;;26.55;51.72;99349.38;5074836;28;20394;-68
2021/07/16 07:40:50;;;;;;;10.02;4.55;;;;;;;26.57;50.99;99352.72;5074722;28;20071;-68
2021/07/16 07:43:19;;;;;;;10.70;4.55;;;;;;;26.67;50.77;99352.06;5074850;28;20119;-69
2021/07/16 07:45:48;;;;;;;8.30;4.38;;;;;;;26.79;50.91;99353.84;5074720;28;20040;-68
2021/07/16 07:48:17;;;;;;;;;;;;;;;26.75;51.95;99357.59;5075087;28;20037;-68
2021/07/16 07:50:46;;;;;;;9.57;4.40;;;;;;;26.70;51.42;99357.09;5074642;28;19924;-67
2021/07/16 07:53:15;;;;;;;8.43;4.22;;;;;;;26.61;52.12;99351.56;5074564;28;20047;-68
2021/07/16 07:55:45;;;;;;;10.88;4.55;;;;;;;26.81;51.55;99350.16;5074618;28;20037;-67
2021/07/16 07:58:15;;;;;;;;;;;;;;;27.03;51.07;99352.88;5074880;28;20048;-67
2021/07/16 08:00:44;;;;;;;8.25;4.78;;;;;;;27.09;51.07;99351.63;5056661;28;20366;-68
2021/07/16 08:03:13;;;;;;;7.30;4.35;;;;;;;27.22;50.78;99355.81;5074431;28;20116;-68
2021/07/16 08:05:42;;;;;;;8.13;4.30;;;;;;;27.23;50.25;99352.25;5074397;28;20044;-68
2021/07/16 08:08:11;;;;;;;;;;;;;;;27.26;50.37;99357.25;5074811;28;20029;-68
2021/07/16 08:10:40;;;;;;;7.10;4.30;;;;;;;27.44;49.64;99355.09;5074512;28;19921;-68
2021/07/16 08:13:09;;;;;;;8.73;4.32;;;;;;;27.56;48.85;99350.72;5074144;28;20067;-67
2021/07/16 08:15:40;;;;;;;;;;;;;;;27.16;49.04;99350.22;5074574;28;20049;-68
2021/07/16 08:18:09;;;;;;;8.18;4.30;;;;;;;27.22;50.58;99352.38;5074237;28;19966;-67
2021/07/16 08:20:38;;;;;;;7.35;4.55;;;;;;;27.61;49.19;99346.78;5073620;28;20033;-68
2021/07/16 08:23:08;;;;;;;7.35;4.82;;;;;;;27.74;48.69;99342.28;5074027;28;20052;-70
2021/07/16 08:25:37;;;;;;;8.65;4.25;;;;;;;27.69;49.46;99349.66;5074000;28;20048;-70
2021/07/16 08:28:06;;;;;;;7.70;4.60;;;;;;;27.78;48.66;99333.22;5073950;28;20089;-69
2021/07/16 08:30:35;;;;;;;7.05;4.65;;;;;;;27.85;47.97;99339.69;5073923;28;20041;-70
2021/07/16 08:33:06;;;;;;;7.90;4.35;;;;;;;27.86;49.06;99341.31;5073793;28;20124;-70
2021/07/16 08:35:36;;;;;;;6.40;4.38;;;;;;;27.89;48.24;99341.09;5073962;28;20510;-70
2021/07/16 08:38:05;;;;;;;7.07;4.32;;;;;;;28.08;47.59;99339.69;5073609;28;20566;-68
2021/07/16 08:40:36;;;;;;;6.88;4.75;;;;;;;28.09;47.63;99338.75;5073710;28;20131;-67
2021/07/16 08:43:07;;;;;;;8.05;4.63;;;;;;;28.29;47.24;99344.09;5073743;28;20044;-68
2021/07/16 08:45:36;;;;;;;7.57;4.55;;;;;;;28.61;46.81;99344.22;5073678;28;20064;-67
2021/07/16 08:48:10;;;;;;;6.68;4.32;;;;;;;28.77;46.37;99342.00;5073961;28;20044;-67
2021/07/16 08:50:41;;;;;;;8.55;4.63;;;;;;;28.85;47.90;99347.50;5073556;28;20087;-67
2021/07/16 08:53:12;;;;;;;8.35;4.55;;;;;;;29.08;46.63;99343.81;5073537;28;20074;-68
2021/07/16 08:55:42;;;;;;;6.32;4.55;;;;;;;29.22;48.20;99342.72;5073459;28;20383;-68
2021/07/16 08:58:12;;;;;;;9.07;5.28;;;;;;;28.82;46.27;99337.22;5073412;28;20037;-68
2021/07/16 09:00:41;;;;;;;8.95;4.93;;;;;;;28.78;46.53;99333.19;5073517;28;20575;-68
2021/07/16 09:03:13;;;;;;;8.90;5.05;;;;;;;29.02;46.40;99332.97;5073558;28;20033;-68
2021/07/16 09:05:45;;;;;;;6.38;4.38;;;;;;;29.09;45.05;99336.75;5073663;28;20489;-68
2021/07/16 09:08:15;;;;;;;9.20;4.90;;;;;;;29.07;45.15;99331.63;5055667;28;20138;-67
2021/07/16 09:10:46;;;;;;;7.80;4.90;;;;;;;29.08;44.93;99333.28;5073510;28;20101;-68
2021/07/16 09:13:17;;;;;;;6.45;4.90;;;;;;;28.67;44.79;99333.22;5073875;28;20119;-68
2021/07/16 09:15:50;;;;;;;7.85;5.05;;;;;;;28.54;46.30;99327.25;5073444;28;20056;-68
2021/07/16 09:18:23;;;;;;;10.00;5.45;;;;;;;28.48;46.13;99333.00;5073457;28;20105;-68
2021/07/16 09:21:09;;;;;;;8.20;5.38;;;;;;;28.66;45.86;99331.53;5073391;28;20083;-68
2021/07/16 09:23:41;;;;;;;7.65;5.20;;;;;;;28.84;47.32;99340.56;5072360;28;20564;-67
2021/07/16 09:26:13;;;;;;;7.50;4.40;;;;;;;29.13;45.01;99339.00;5073239;28;20055;-67
2021/07/16 09:28:44;;;;;;;9.07;4.80;;;;;;;29.37;44.94;99333.53;5070825;28;20036;-68
2021/07/16 09:31:19;;;;;;;9.35;4.78;;;;;;;29.56;43.95;99332.84;5059913;28;20053;-68
2021/07/16 09:33:56;;;;;;;8.82;4.90;;;;;;;29.63;43.83;99334.84;5063058;28;20514;-67
2021/07/16 09:36:28;;;;;;;6.55;4.80;;;;;;;29.83;45.57;99331.38;5066570;28;20550;-69
2021/07/16 09:38:59;;;;;;;8.52;5.00;;;;;;;30.01;45.29;99334.22;5067708;28;20037;-69
2021/07/16 09:41:28;;;;;;;7.07;4.63;;;;;;;30.22;46.66;99321.81;5064886;28;20045;-67
2021/07/16 09:44:01;;;;;;;7.57;4.38;;;;;;;30.30;46.04;99319.38;5057119;28;20084;-69
2021/07/16 09:46:31;;;;;;;7.90;4.90;;;;;;;30.37;44.96;99319.69;5057091;28;20075;-69
2021/07/16 09:49:11;;;;;;;;;;;;;;;30.33;43.77;99318.28;5057512;28;20090;-69
2021/07/16 09:51:43;;;;;;;8.52;4.57;;;;;;;30.40;42.85;99309.69;5057170;28;19971;-69
2021/07/16 09:54:16;;;;;;;7.10;4.47;;;;;;;30.31;42.60;99309.63;5066723;28;20048;-69
2021/07/16 09:56:46;;;;;;;10.57;4.50;;;;;;;30.37;42.47;99310.00;5062086;28;20052;-69
2021/07/16 09:59:17;;;;;;;8.15;4.60;;;;;;;30.58;42.21;99314.31;5056783;28;20449;-69
2021/07/16 10:01:49;;;;;;;6.82;4.18;;;;;;;30.61;43.20;99312.25;5056797;28;20060;-68
2021/07/16 10:04:20;;;;;;;7.35;4.55;;;;;;;30.59;42.38;99311.56;5056836;28;20075;-68
2021/07/16 10:06:52;;;;;;;6.63;4.70;;;;;;;30.70;42.66;99313.22;5056818;28;20045;-69
2021/07/16 10:09:24;;;;;;;6.28;4.32;;;;;;;30.72;43.53;99287.56;5057047;28;20052;-69
2021/07/16 10:11:54;;;;;;;6.00;4.22;;;;;;;30.91;43.03;99316.59;5056790;28;20044;-69
2021/07/16 10:14:24;;;;;;;8.20;4.05;;;;;;;30.92;42.70;99307.72;5038899;28;20116;-69
2021/07/16 10:16:55;;;;;;;7.55;4.95;;;;;;;30.81;41.60;99311.28;5056409;28;20055;-68
2021/07/16 10:19:25;;;;;;;8.10;4.53;;;;;;;30.67;43.47;99306.41;5056271;28;20063;-69
2021/07/16 10:21:56;;;;;;;7.72;4.25;;;;;;;30.63;43.56;99314.75;5056392;28;20517;-70
2021/07/16 10:24:26;;;;;;;8.15;4.47;;;;;;;30.37;42.36;99314.41;5056293;28;20045;-69
2021/07/16 10:27:16;;;;;;;7.65;4.80;;;;;;;30.08;44.23;99316.94;5056406;28;20055;-69
2021/07/16 10:29:46;;;;;;;6.45;4.53;;;;;;;29.80;45.61;99293.97;5056296;28;20129;-69
2021/07/16 10:32:43;;;;;;;9.10;4.53;;;;;;;29.75;45.14;99311.91;5038415;28;20483;-67
2021/07/16 10:35:21;;;;;;;10.98;4.47;;;;;;;29.67;44.75;99306.47;5038619;28;20437;-67
2021/07/16 10:37:55;;;;;;;10.70;4.65;;;;;;;29.67;44.92;99314.34;5056158;28;20506;-69
2021/07/16 10:40:40;;;;;;;8.00;4.55;;;;;;;29.63;46.77;99310.31;5055267;28;20064;-68
2021/07/16 10:43:30;;;;;;;6.32;4.00;;;;;;;29.61;45.70;99304.38;5053962;28;20040;-71
2021/07/16 10:46:23;;;;;;;11.13;4.43;;;;;;;29.66;44.79;99310.03;5070738;28;20133;-67
2021/07/16 10:48:54;;;;;;;6.18;3.92;;;;;;;29.74;44.57;99312.88;5068032;28;20048;-67
2021/07/16 10:51:25;;;;;;;9.57;3.95;;;;;;;29.91;44.80;99312.28;5072203;28;20029;-68
2021/07/16 10:53:57;;;;;;;6.75;4.03;;;;;;;30.03;44.29;99311.22;5072871;28;20478;-68
2021/07/16 10:56:44;;;;;;;8.48;4.55;;;;;;;30.10;44.08;99307.09;5055448;28;20433;-67
2021/07/16 10:59:37;;;;;;;9.57;3.97;;;;;;;30.01;44.61;99305.25;5069943;28;20434;-67
2021/07/16 11:02:34;;;;;;;8.13;3.67;;;;;;;29.95;42.76;99307.56;5072123;28;20090;-69
2021/07/16 11:05:45;;;;;;;12.10;4.32;;;;;;;29.95;42.90;99308.41;5071180;28;20063;-69
2021/07/16 11:08:44;;;;;;;7.07;3.33;;;;;;;30.03;42.39;99307.75;5074025;28;20375;-70
2021/07/16 11:11:15;;;;;;;6.43;3.80;;;;;;;30.12;41.79;99310.41;5057702;28;20040;-70
2021/07/16 11:13:45;;;;;;;5.82;3.45;;;;;;;30.25;42.66;99305.75;5073693;28;20469;-69
2021/07/16 11:16:37;;;;;;;5.97;3.65;;;;;;;30.60;44.34;99312.38;5075170;28;20048;-68
2021/07/16 11:19:18;;;;;;;6.95;3.70;;;;;;;30.77;40.59;99309.06;5075786;28;20559;-70
2021/07/16 11:22:09;;;;;;;7.88;3.53;;;;;;;30.70;40.06;99305.31;5075347;28;20053;-70
2021/07/16 11:24:43;;;;;;;6.43;3.58;;;;;;;30.52;39.80;99298.06;5069577;28;20397;-68
2021/07/16 11:27:15;;;;;;;8.18;3.85;;;;;;;30.42;42.21;99305.16;5075335;28;20061;-69
2021/07/16 11:29:46;;;;;;;6.78;4.10;;;;;;;30.22;43.16;99310.47;5075161;28;20406;-69
2021/07/16 11:32:19;;;;;;;5.65;3.70;;;;;;;30.11;44.14;99306.13;5074947;28;20049;-69
2021/07/16 11:34:56;;;;;;;7.18;3.80;;;;;;;29.96;44.52;99299.56;5074913;28;20046;-69
2021/07/16 11:37:29;;;;;;;5.88;3.70;;;;;;;29.98;44.62;99302.91;5074935;28;20058;-69
2021/07/16 11:40:04;;;;;;;10.25;3.70;;;;;;;30.14;42.45;99297.94;5075043;28;20059;-69
2021/07/16 11:42:36;;;;;;;8.15;3.97;;;;;;;30.37;41.55;99291.56;5075110;28;20032;-69
2021/07/16 11:45:09;;;;;;;6.25;3.80;;;;;;;30.52;41.65;99292.00;5074801;28;20036;-70
2021/07/16 11:47:39;;;;;;;5.85;3.70;;;;;;;30.60;41.33;99292.13;5070360;28;20489;-71
2021/07/16 11:50:11;;;;;;;8.10;4.10;;;;;;;30.73;41.70;99295.34;5065089;28;20519;-69
2021/07/16 11:52:44;;;;;;;7.72;3.83;;;;;;;30.92;41.01;99289.25;5063664;28;20382;-69